Aérodrome :
LOGIN :

S'inscrire | Disclaimer

   EN    FR    IT 

 










Légende :    VFR   VFR Marginal   IFR   IFR Intensif   IFR Très Intensif
Visi : 
Plafond : 
>= 8 km
>= 3000ft
5 à 8 km
1000 à 3000 ft
1500m à 5 km
500 à 1000 ft
800 à 1500m
200 à 500 ft
< 800m
< 200 ft
Symboles :   Orages  Brouillard  Fortes neiges  Fortes précipitations  Vent > 20 kt
SIGMETs :   Divers  Orages  Givrage  Turbulence  Onde Orograph.  Cendres Volcan.






- Altitude de l'aérodrome : 1910 ft
- Code IATA : RDZ


LFCR - Rodez

DERNIER METAR :
  • 231400Z AUTO 24017KT 9999 BKN017/// BKN027/// BKN032/// ///TCU 04/02 Q1000 TEMPO 26018G30KT 4000 RA BKN004

METARs EXPIRÉS :
  • 231330Z AUTO 24017KT 9999 BKN011/// BKN017/// OVC078/// ///CB 04/03 Q1000 TEMPO 26018G30KT 4000 RA BKN004
  • 231300Z AUTO 25015KT 8000 -RA OVC009/// ///TCU 03/03 Q1001 TEMPO 26018G30KT 4000 RA BKN004
  • 231230Z AUTO 24012KT 9000 -RA OVC010/// ///TCU 03/02 Q1001 TEMPO 26018G30KT 4000 RA BKN004
  • 231200Z AUTO 24015KT 8000 RA OVC010/// ///TCU 03/02 Q1001 TEMPO 26018G30KT 4000 RA BKN004
  • 231130Z AUTO 22011KT 9999 -RA OVC010/// ///TCU 03/02 Q1002 TEMPO 25020G30KT 4000 SHRA OVC003 FEW015TCU

TAF TAF LFCR
Valide du 23 à 12h jusqu'au 24 à 12h UTC


231100Z 2312/2412 24014KT 9999 BKN008 OVC012
TEMPO 2312/2316 26018G30KT 4000 RA BKN004
BECMG 2316/2318 FEW011 SCT020
BECMG 2319/2321 VRB03KT BKN006
PROB40
TEMPO 2319/2402 4000 -RADZ
PROB30
TEMPO 2322/2402 2000 -SN OVC003
BECMG 2403/2405 31010KT BKN004
BECMG 2407/2409 BKN008



MET'MAP, la Météo Aéronautique d'un coup d'oeil ! - Copyright ORBIFLY Décembre 2007 - Disclaimer

ORBIFLY MET'MAP TEAM :

Programmation & Développement : Alexandra Zaïnal
Sur une idée originale de : Baudouin d'Aumeries
Assistance à la programmation : Marc-Olivier Méhu
Soutien technique & logistique : Manuel Goepfert

Contact : metmap@orbifly.com




SOURCES & CREDITS :

   NOAA